Login

  1 2 3 4 5 6 7 8 9101112131415161718+/-Sum    
  Par:33333333433433333356
  1 2 3 4 5 6 7 8 9101112131415161718+/-Sum    
Pro Open (17)
1Andreas Havnegjerde09/08/18 09:30333333333235332225-254  -254
  09/08/18 13:30333223336243332422-353-5107 -353
2Fredrik Runsjø09/08/18 09:30243234343334244233056  056
  09/08/18 13:30223233234346233223-452-4108 -452
3Niklas Eriksson09/08/18 09:30334324224236223422-353  -353
  09/08/18 13:30333335324234323334056-3109 056
4Morten Falk09/08/18 09:30243323336336222325+157  157
  09/08/18 13:30223233324335333524-1550112 -155
5Håvard Strand09/08/18 09:30223335335346224333+359  359
  09/08/18 13:30233323435347332323+258+5117 258
6Sondre Dyb Berg09/08/18 09:30243332343346342233+157  157
  09/08/18 13:30233233545336333344+662+7119 662
7Oddbjørn Molvik09/08/18 09:30343435425346332324+763  763
  09/08/18 13:30234433335334322433+157+8120 157
7Jøran Eriksen09/08/18 09:30333333437335344342+763  763
  09/08/18 13:30334234424344333224+157+8120 157
9Gøran Jaklin09/08/18 09:30233335536235333334+662  662
  09/08/18 13:30335425324344332333+359+9121 359
9Tom-Henrik Sandvik09/08/18 09:30335233335345342325+561  561
  09/08/18 13:30333245366334322332+460+9121 460
11Yuri Zelentsov09/08/18 09:30433334325444324333+460  460
  09/08/18 13:30334243326346333424+662+10122 662
12Tore Skagestein09/08/18 09:30343335435354333434+965  965
  09/08/18 13:30334333335344333323+258+11123 258
12Ole-Jacob Sørensen09/08/18 09:30343334335335333333+460  460
  09/08/18 13:30333334435345333443+763+11123 763
14Haakon Dalsbø09/08/18 09:30434243335258333424+965  965
  09/08/18 13:30324234435235323336+460+13125 460
15Jon-Eric Melsæter09/08/18 09:30435354356445333522+1369  1369
  09/08/18 13:30344323334344333324+258+15127 258
16Thomas Bencic09/08/18 09:30344333536439433333+1369  1369
  09/08/18 13:30444333436335332424+763+20132 763
17Jostein Engebretsen09/08/18 09:30234335436278333336+1571  1571
  09/08/18 13:30634344446335423344+1369+28140 1369
  1 2 3 4 5 6 7 8 9101112131415161718+/-Sum    
Pro Open Women (1)
1Eirin Korvald09/08/18 09:30344534436456334534+1773  1773
  09/08/18 13:30444455537366444333+2177+38150 2177
  1 2 3 4 5 6 7 8 9101112131415161718+/-Sum    
Recreational (25)
1Geir-Arne Roos09/08/18 09:30244333335346333233+460  460
  09/08/18 13:30223325335344323224-155+3115 -155
2Jørn Idar Kvig09/08/18 09:30354444334334323423+561  561
  09/08/18 13:30334243335235332323056+5117 056
3Truls Flatland09/08/18 09:30334334335354333333+561  561
  09/08/18 13:30243433334335333633+561+10122 561
4Daniel Jensen09/08/18 09:30335333335246334324+662  662
  09/08/18 13:30433325225445423335+662+12124 662
4Geir Turtum09/08/18 09:30335234345235335333+662  662
  09/08/18 13:30344334435335333333+662+12124 662
6Hans-Henrik Grøn09/08/18 09:30333334344336423425+662  662
  09/08/18 13:30234445334344333443+763+13125 763
6Espen Paulsen09/08/18 09:30343374345345354634+1773  1773
  09/08/18 13:30334333324243233322-452+13125 -452
6Marius Flagestad09/08/18 09:30444434634344343332+965  965
  09/08/18 13:30343345335345332322+460+13125 460
9Bård Bøe09/08/18 09:30243333435344433335+662  662
  09/08/18 13:30444333534336343333+864+14126 864
9Esbjörn Kjell09/08/18 09:30433434336247335233+965  965
  09/08/18 13:30243535325234333425+561+14126 561
11Dagfinn Valen Brendemo09/08/18 09:30455335436345333332+1167  1167
  09/08/18 13:30234434336354343322+561+16128 561
11Jens A. Kristiansen09/08/18 09:30343334335244334523+561  561
  09/08/18 13:30363335345344333345+1167+16128 1167
11Said Zabihian09/08/18 09:30254333444345333334+763  763
  09/08/18 13:30344423544345343334+965+16128 965
14Simen Dyb Berg09/08/18 09:30333344435336334323+662  662
  09/08/18 13:30334533335247445234+1167+17129 1167
15Ken Persen09/08/18 09:30353344346345453524+1470  1470
  09/08/18 13:30253323435256333233+460+18130 460
16Jonas Lillefoss09/08/18 09:30354545425345333434+1369  1369
  09/08/18 13:30333334455335232344+662+19131 662
17Sigbjørn Strand09/08/18 09:30333536335445353524+1369  1369
  09/08/18 13:30244343444346334224+763+20132 763
18Thore Isaksen09/08/18 09:30535435425256333333+1167  1167
  09/08/18 13:30244735424355534423+1369+24136 1369
18markus fjørtoft09/08/18 09:30334234337347445323+1167  1167
  09/08/18 13:30334435355333454534+1369+24136 1369
18Arnold Vinje Erichsen09/08/18 09:30274334455355332344+1369  1369
  09/08/18 13:30343324326249335344+1167+24136 1167
21Thor Olav Lyngedal09/08/18 09:30353434336345442333+965  965
  09/08/18 13:302343353383410345343+1773+26138 1773
22Thorgeir J. Berg09/08/18 09:30434445347336344435+1773  1773
  09/08/18 13:30334344435447333326+1268+29141 1268
23Jonar Fonn Aluwini09/08/18 09:30443343245356333535+1268  1268
  09/08/18 13:30244535347456444334+1874+30142 1874
24Asgeir Blakseth09/08/18 09:303555243343410433455+1975  1975
  09/08/18 13:30355463335366333334+1571+34146 1571
25Stephen Nickell09/08/18 09:30343545439445353524+1975  1975
  09/08/18 13:300DNS+999999
  1 2 3 4 5 6 7 8 9101112131415161718+/-Sum    
Novice (18)
1Morten Hofmo Evensen09/08/18 09:30223353345344454234+763  763
  09/08/18 13:30344333434346343344+965+16128 965
2Sondre Moen09/08/18 09:30344233435345434333+763  763
  09/08/18 13:30344233338336345435+1369+20132 1369
3Johnny Bergstrøm09/08/18 09:30246234435454432534+1167  1167
  09/08/18 13:30234433547447434334+1571+26138 1571
3Tobias Degerdal09/08/18 09:30343534436457343424+1571  1571
  09/08/18 13:30255333437355333334+1167+26138 1167
5Thomas Raaness09/08/18 09:30444544337447433423+1672  1672
  09/08/18 13:30244434355445334424+1167+27139 1167
6Ditlev Sørensen09/08/18 09:30344345436345343333+1167  1167
  09/08/18 13:30354344436359434325+1874+29141 1874
7Ronny Andresen09/08/18 09:30334444436348363333+1571  1571
  09/08/18 13:30345345435458334333+1672+31143 1672
8Lars Harald Tjøstheim09/08/18 09:30255545445346433333+1571  1571
  09/08/18 13:30234545456358333325+1773+32144 1773
8Stian Daniel Nilsen09/08/18 09:30334257336349333333+1470  1470
  09/08/18 13:30355534337355454334+1874+32144 1874
10John Kristiansen09/08/18 09:30336335546356533435+1975  1975
  09/08/18 13:30334434536347433524+1470+33145 1470
11Ole Kristian Mosand09/08/18 09:30444356345448335336+2177  2177
  09/08/18 13:30344335335356333553+1369+34146 1369
11Anders Fjeld Meyer09/08/18 09:30345456445447333336+2076  2076
  09/08/18 13:30354335346356433334+1470+34146 1470
13Eivind Storm-Olsen09/08/18 09:30435445535349443326+2076  2076
  09/08/18 13:30345444444358433346+1975+39151 1975
14Daniel Berget09/08/18 09:30365347335457443526+2379  2379
  09/08/18 13:30445434567454443435+2278+45157 2278
15Mathias Rasmussen09/08/18 09:30354336557448344634+2581  2581
  09/08/18 13:30444365356446344435+2177+46158 2177
16Arild Kråkvik09/08/18 09:30466668558478555646+48104  48104
  09/08/18 13:305756687595610555556+54110+102214 54110
17Simon Lindgren09/08/18 09:30332434435336343324+662  662
  09/08/18 13:300DNS+999999
17Are Burheim09/08/18 09:3055335346+9DNF  
  09/08/18 13:300DNS+999999
  1 2 3 4 5 6 7 8 9101112131415161718+/-Sum    
Junior ≤ 18 (2)
1Tobias Kristiansen09/08/18 09:30334435447445333423+1268  1268
  09/08/18 13:30343436445357486337+2682+38150 2682
2Mats Ludahl Sørensen09/08/18 09:30445544537456434345+2379  2379
  09/08/18 13:30345335547567434534+2480+47159 2480

Sponsors

Latitude 64
Guru Disc Golf

Course statistics

  1  2  3  4  5  6  7  8  9 101112131415161718Tot%
Par33333333433433333356
Avg33.73.93.43.34.23.63.35.43.14.15.73.33.33.33.42.83.83.7
Difficulty212141041611817315185679113
Birdie -132611812141531937131712441021710%
Par 0685042617336616921773023817368676140100145%
Bogey 119465527274141275224603530252624144361628%
Double Bogey 221622146361510282263149101531826712%
Triple Bogey 3133245121441311410683%
Other >321141521711352%


 User statistics 
 | 
 Show presenter
 | 
Show pdf 

Results will be updated every 30 seconds!